sensor_id;sensor_type;location;lat;lon;timestamp;P1;P2;P0
64229;PMS5003;50547;49.498;0.092;2024-01-30T00:00:32;13;13;
64229;PMS5003;50547;49.498;0.092;2024-01-30T00:03:01;13;13;
64229;PMS5003;50547;49.498;0.092;2024-01-30T00:05:30;13;13;
64229;PMS5003;50547;49.498;0.092;2024-01-30T00:07:59;13;13;
64229;PMS5003;50547;49.498;0.092;2024-01-30T00:10:28;13;13;
64229;PMS5003;50547;49.498;0.092;2024-01-30T00:12:57;13;13;
64229;PMS5003;50547;49.498;0.092;2024-01-30T00:15:26;13;13;
64229;PMS5003;50547;49.498;0.092;2024-01-30T00:17:55;13;13;
64229;PMS5003;50547;49.498;0.092;2024-01-30T00:20:24;13;13;
64229;PMS5003;50547;49.498;0.092;2024-01-30T00:22:53;13;13;
64229;PMS5003;50547;49.498;0.092;2024-01-30T00:25:23;13;13;
64229;PMS5003;50547;49.498;0.092;2024-01-30T00:27:52;13;13;
64229;PMS5003;50547;49.498;0.092;2024-01-30T00:30:21;13;13;
64229;PMS5003;50547;49.498;0.092;2024-01-30T00:32:50;13;13;
64229;PMS5003;50547;49.498;0.092;2024-01-30T00:35:19;13;13;
64229;PMS5003;50547;49.498;0.092;2024-01-30T00:37:48;13;13;
64229;PMS5003;50547;49.498;0.092;2024-01-30T00:40:17;13;13;
64229;PMS5003;50547;49.498;0.092;2024-01-30T00:42:46;13;13;
64229;PMS5003;50547;49.498;0.092;2024-01-30T00:45:15;13;13;
64229;PMS5003;50547;49.498;0.092;2024-01-30T00:47:45;14;14;
64229;PMS5003;50547;49.498;0.092;2024-01-30T00:50:14;13;13;
64229;PMS5003;50547;49.498;0.092;2024-01-30T00:52:43;13;13;
64229;PMS5003;50547;49.498;0.092;2024-01-30T00:55:12;14;14;
64229;PMS5003;50547;49.498;0.092;2024-01-30T00:57:41;17;15;
64229;PMS5003;50547;49.498;0.092;2024-01-30T01:00:11;14;14;
64229;PMS5003;50547;49.498;0.092;2024-01-30T01:02:40;14;14;
64229;PMS5003;50547;49.498;0.092;2024-01-30T01:05:09;14;14;
64229;PMS5003;50547;49.498;0.092;2024-01-30T01:07:38;13;13;
64229;PMS5003;50547;49.498;0.092;2024-01-30T01:10:08;14;14;
64229;PMS5003;50547;49.498;0.092;2024-01-30T01:12:37;14;14;
64229;PMS5003;50547;49.498;0.092;2024-01-30T01:15:06;13;13;
64229;PMS5003;50547;49.498;0.092;2024-01-30T01:17:36;15;14;
64229;PMS5003;50547;49.498;0.092;2024-01-30T01:20:06;15;14;
64229;PMS5003;50547;49.498;0.092;2024-01-30T01:22:36;15;14;
64229;PMS5003;50547;49.498;0.092;2024-01-30T01:25:06;14;14;
64229;PMS5003;50547;49.498;0.092;2024-01-30T01:27:35;14;14;
64229;PMS5003;50547;49.498;0.092;2024-01-30T01:30:05;14;14;
64229;PMS5003;50547;49.498;0.092;2024-01-30T01:32:35;14;14;
64229;PMS5003;50547;49.498;0.092;2024-01-30T01:35:04;17;15;
64229;PMS5003;50547;49.498;0.092;2024-01-30T01:37:30;18;16;
64229;PMS5003;50547;49.498;0.092;2024-01-30T01:39:59;17;15;
64229;PMS5003;50547;49.498;0.092;2024-01-30T01:42:28;18;16;
64229;PMS5003;50547;49.498;0.092;2024-01-30T01:44:57;15;14;
64229;PMS5003;50547;49.498;0.092;2024-01-30T01:47:26;17;15;
64229;PMS5003;50547;49.498;0.092;2024-01-30T01:49:55;17;15;
64229;PMS5003;50547;49.498;0.092;2024-01-30T01:52:24;18;16;
64229;PMS5003;50547;49.498;0.092;2024-01-30T01:54:54;20;17;
64229;PMS5003;50547;49.498;0.092;2024-01-30T01:57:23;19;17;
64229;PMS5003;50547;49.498;0.092;2024-01-30T01:59:52;18;16;
64229;PMS5003;50547;49.498;0.092;2024-01-30T02:02:21;20;17;
64229;PMS5003;50547;49.498;0.092;2024-01-30T02:04:53;18;16;
64229;PMS5003;50547;49.498;0.092;2024-01-30T02:07:22;20;17;
64229;PMS5003;50547;49.498;0.092;2024-01-30T02:09:52;19;17;
64229;PMS5003;50547;49.498;0.092;2024-01-30T02:12:21;19;17;
64229;PMS5003;50547;49.498;0.092;2024-01-30T02:14:50;20;17;
64229;PMS5003;50547;49.498;0.092;2024-01-30T02:17:19;18;16;
64229;PMS5003;50547;49.498;0.092;2024-01-30T02:19:48;20;17;
64229;PMS5003;50547;49.498;0.092;2024-01-30T02:22:17;20;17;
64229;PMS5003;50547;49.498;0.092;2024-01-30T02:24:47;20;17;
64229;PMS5003;50547;49.498;0.092;2024-01-30T02:27:16;20;17;
64229;PMS5003;50547;49.498;0.092;2024-01-30T02:29:45;20;17;
64229;PMS5003;50547;49.498;0.092;2024-01-30T02:32:14;21;18;
64229;PMS5003;50547;49.498;0.092;2024-01-30T02:34:43;21;18;
64229;PMS5003;50547;49.498;0.092;2024-01-30T02:37:12;21;18;
64229;PMS5003;50547;49.498;0.092;2024-01-30T02:39:46;22;19;
64229;PMS5003;50547;49.498;0.092;2024-01-30T02:42:15;22;19;
64229;PMS5003;50547;49.498;0.092;2024-01-30T02:44:44;22;19;
64229;PMS5003;50547;49.498;0.092;2024-01-30T02:47:13;22;19;
64229;PMS5003;50547;49.498;0.092;2024-01-30T02:49:42;23;20;
64229;PMS5003;50547;49.498;0.092;2024-01-30T02:52:11;23;20;
64229;PMS5003;50547;49.498;0.092;2024-01-30T02:54:40;23;20;
64229;PMS5003;50547;49.498;0.092;2024-01-30T02:57:09;23;20;
64229;PMS5003;50547;49.498;0.092;2024-01-30T02:59:38;23;20;
64229;PMS5003;50547;49.498;0.092;2024-01-30T03:02:07;23;20;
64229;PMS5003;50547;49.498;0.092;2024-01-30T03:04:36;23;20;
64229;PMS5003;50547;49.498;0.092;2024-01-30T03:07:05;23;20;
64229;PMS5003;50547;49.498;0.092;2024-01-30T03:09:34;23;20;
64229;PMS5003;50547;49.498;0.092;2024-01-30T03:12:05;23;20;
64229;PMS5003;50547;49.498;0.092;2024-01-30T03:14:34;24;21;
64229;PMS5003;50547;49.498;0.092;2024-01-30T03:17:04;22;19;
64229;PMS5003;50547;49.498;0.092;2024-01-30T03:19:33;21;18;
64229;PMS5003;50547;49.498;0.092;2024-01-30T03:22:02;18;16;
64229;PMS5003;50547;49.498;0.092;2024-01-30T03:24:31;18;16;
64229;PMS5003;50547;49.498;0.092;2024-01-30T03:27:00;13;13;
64229;PMS5003;50547;49.498;0.092;2024-01-30T03:29:29;11;11;
64229;PMS5003;50547;49.498;0.092;2024-01-30T03:31:58;10;10;
64229;PMS5003;50547;49.498;0.092;2024-01-30T03:34:27;9;9;
64229;PMS5003;50547;49.498;0.092;2024-01-30T03:36:56;6;6;
64229;PMS5003;50547;49.498;0.092;2024-01-30T03:39:25;5;5;
64229;PMS5003;50547;49.498;0.092;2024-01-30T03:41:54;4;4;
64229;PMS5003;50547;49.498;0.092;2024-01-30T03:44:23;4;4;
64229;PMS5003;50547;49.498;0.092;2024-01-30T03:46:52;4;4;
64229;PMS5003;50547;49.498;0.092;2024-01-30T03:49:22;5;5;
64229;PMS5003;50547;49.498;0.092;2024-01-30T03:51:51;5;5;
64229;PMS5003;50547;49.498;0.092;2024-01-30T03:54:20;4;4;
64229;PMS5003;50547;49.498;0.092;2024-01-30T03:56:49;4;4;
64229;PMS5003;50547;49.498;0.092;2024-01-30T03:59:18;4;4;
64229;PMS5003;50547;49.498;0.092;2024-01-30T04:01:47;3;3;
64229;PMS5003;50547;49.498;0.092;2024-01-30T04:04:16;4;4;
64229;PMS5003;50547;49.498;0.092;2024-01-30T04:06:45;4;4;
64229;PMS5003;50547;49.498;0.092;2024-01-30T04:09:15;4;4;
64229;PMS5003;50547;49.498;0.092;2024-01-30T04:11:44;4;4;
64229;PMS5003;50547;49.498;0.092;2024-01-30T04:14:13;4;4;
64229;PMS5003;50547;49.498;0.092;2024-01-30T04:16:39;4;4;
64229;PMS5003;50547;49.498;0.092;2024-01-30T04:19:08;4;4;
64229;PMS5003;50547;49.498;0.092;2024-01-30T04:21:37;4;4;
64229;PMS5003;50547;49.498;0.092;2024-01-30T04:24:03;4;4;
64229;PMS5003;50547;49.498;0.092;2024-01-30T04:26:32;4;4;
64229;PMS5003;50547;49.498;0.092;2024-01-30T04:29:01;4;4;
64229;PMS5003;50547;49.498;0.092;2024-01-30T04:31:31;4;4;
64229;PMS5003;50547;49.498;0.092;2024-01-30T04:34:00;4;4;
64229;PMS5003;50547;49.498;0.092;2024-01-30T04:36:29;5;5;
64229;PMS5003;50547;49.498;0.092;2024-01-30T04:38:55;4;4;
64229;PMS5003;50547;49.498;0.092;2024-01-30T04:41:24;4;4;
64229;PMS5003;50547;49.498;0.092;2024-01-30T04:43:53;3;3;
64229;PMS5003;50547;49.498;0.092;2024-01-30T04:46:22;4;4;
64229;PMS5003;50547;49.498;0.092;2024-01-30T04:48:51;3;3;
64229;PMS5003;50547;49.498;0.092;2024-01-30T04:51:20;3;3;
64229;PMS5003;50547;49.498;0.092;2024-01-30T04:53:49;3;3;
64229;PMS5003;50547;49.498;0.092;2024-01-30T04:56:15;3;3;
64229;PMS5003;50547;49.498;0.092;2024-01-30T04:58:44;3;3;
64229;PMS5003;50547;49.498;0.092;2024-01-30T05:01:14;3;3;
64229;PMS5003;50547;49.498;0.092;2024-01-30T05:03:44;4;4;
64229;PMS5003;50547;49.498;0.092;2024-01-30T05:06:23;3;3;
64229;PMS5003;50547;49.498;0.092;2024-01-30T05:08:53;4;4;
64229;PMS5003;50547;49.498;0.092;2024-01-30T05:11:19;3;3;
64229;PMS5003;50547;49.498;0.092;2024-01-30T05:13:48;4;4;
64229;PMS5003;50547;49.498;0.092;2024-01-30T05:16:17;3;3;
64229;PMS5003;50547;49.498;0.092;2024-01-30T05:18:43;2;2;
64229;PMS5003;50547;49.498;0.092;2024-01-30T05:21:12;3;3;
64229;PMS5003;50547;49.498;0.092;2024-01-30T05:23:41;1;1;
64229;PMS5003;50547;49.498;0.092;2024-01-30T05:26:07;1;1;
64229;PMS5003;50547;49.498;0.092;2024-01-30T05:28:36;1;1;
64229;PMS5003;50547;49.498;0.092;2024-01-30T05:31:05;1;1;
64229;PMS5003;50547;49.498;0.092;2024-01-30T05:33:35;3;3;
64229;PMS5003;50547;49.498;0.092;2024-01-30T05:36:04;1;1;
64229;PMS5003;50547;49.498;0.092;2024-01-30T05:38:33;1;1;
64229;PMS5003;50547;49.498;0.092;2024-01-30T05:40:59;3;3;
64229;PMS5003;50547;49.498;0.092;2024-01-30T05:43:33;1;1;
64229;PMS5003;50547;49.498;0.092;2024-01-30T05:45:59;1;1;
64229;PMS5003;50547;49.498;0.092;2024-01-30T05:48:28;1;1;
64229;PMS5003;50547;49.498;0.092;2024-01-30T05:50:58;1;1;
64229;PMS5003;50547;49.498;0.092;2024-01-30T05:53:27;2;2;
64229;PMS5003;50547;49.498;0.092;2024-01-30T05:55:56;1;1;
64229;PMS5003;50547;49.498;0.092;2024-01-30T05:58:25;3;3;
64229;PMS5003;50547;49.498;0.092;2024-01-30T06:00:50;1;1;
64229;PMS5003;50547;49.498;0.092;2024-01-30T06:03:20;2;2;
64229;PMS5003;50547;49.498;0.092;2024-01-30T06:05:49;1;1;
64229;PMS5003;50547;49.498;0.092;2024-01-30T06:08:18;1;1;
64229;PMS5003;50547;49.498;0.092;2024-01-30T06:10:47;3;3;
64229;PMS5003;50547;49.498;0.092;2024-01-30T06:13:21;2;2;
64229;PMS5003;50547;49.498;0.092;2024-01-30T06:15:50;1;1;
64229;PMS5003;50547;49.498;0.092;2024-01-30T06:18:19;3;3;
64229;PMS5003;50547;49.498;0.092;2024-01-30T06:20:48;1;1;
64229;PMS5003;50547;49.498;0.092;2024-01-30T06:23:17;1;1;
64229;PMS5003;50547;49.498;0.092;2024-01-30T06:25:46;2;2;
64229;PMS5003;50547;49.498;0.092;2024-01-30T06:28:15;1;1;
64229;PMS5003;50547;49.498;0.092;2024-01-30T06:30:44;1;1;
64229;PMS5003;50547;49.498;0.092;2024-01-30T06:33:13;1;1;
64229;PMS5003;50547;49.498;0.092;2024-01-30T06:35:42;4;4;
64229;PMS5003;50547;49.498;0.092;2024-01-30T06:38:11;1;1;
64229;PMS5003;50547;49.498;0.092;2024-01-30T06:40:40;1;1;
64229;PMS5003;50547;49.498;0.092;2024-01-30T06:43:09;1;1;
64229;PMS5003;50547;49.498;0.092;2024-01-30T06:45:38;1;1;
64229;PMS5003;50547;49.498;0.092;2024-01-30T06:48:07;1;1;
64229;PMS5003;50547;49.498;0.092;2024-01-30T06:50:37;3;3;
64229;PMS5003;50547;49.498;0.092;2024-01-30T06:53:06;1;1;
64229;PMS5003;50547;49.498;0.092;2024-01-30T06:55:35;1;1;
64229;PMS5003;50547;49.498;0.092;2024-01-30T06:58:04;2;2;
64229;PMS5003;50547;49.498;0.092;2024-01-30T07:00:33;2;2;
64229;PMS5003;50547;49.498;0.092;2024-01-30T07:03:02;1;1;
64229;PMS5003;50547;49.498;0.092;2024-01-30T07:05:31;1;1;
64229;PMS5003;50547;49.498;0.092;2024-01-30T07:08:00;1;1;
64229;PMS5003;50547;49.498;0.092;2024-01-30T07:10:29;1;1;
64229;PMS5003;50547;49.498;0.092;2024-01-30T07:13:00;1;1;
64229;PMS5003;50547;49.498;0.092;2024-01-30T07:15:29;1;1;
64229;PMS5003;50547;49.498;0.092;2024-01-30T07:17:58;2;2;
64229;PMS5003;50547;49.498;0.092;2024-01-30T07:20:27;1;1;
64229;PMS5003;50547;49.498;0.092;2024-01-30T07:22:56;2;2;
64229;PMS5003;50547;49.498;0.092;2024-01-30T07:25:25;3;3;
64229;PMS5003;50547;49.498;0.092;2024-01-30T07:27:54;3;3;
64229;PMS5003;50547;49.498;0.092;2024-01-30T07:30:23;1;1;
64229;PMS5003;50547;49.498;0.092;2024-01-30T07:32:52;5;5;
64229;PMS5003;50547;49.498;0.092;2024-01-30T07:35:21;1;1;
64229;PMS5003;50547;49.498;0.092;2024-01-30T07:37:50;1;1;
64229;PMS5003;50547;49.498;0.092;2024-01-30T07:40:19;3;3;
64229;PMS5003;50547;49.498;0.092;2024-01-30T07:42:48;3;3;
64229;PMS5003;50547;49.498;0.092;2024-01-30T07:45:18;2;2;
64229;PMS5003;50547;49.498;0.092;2024-01-30T07:47:47;1;1;
64229;PMS5003;50547;49.498;0.092;2024-01-30T07:50:16;1;1;
64229;PMS5003;50547;49.498;0.092;2024-01-30T07:52:45;3;3;
64229;PMS5003;50547;49.498;0.092;2024-01-30T07:55:14;1;1;
64229;PMS5003;50547;49.498;0.092;2024-01-30T07:57:43;2;2;
64229;PMS5003;50547;49.498;0.092;2024-01-30T08:00:13;2;2;
64229;PMS5003;50547;49.498;0.092;2024-01-30T08:02:43;4;4;
64229;PMS5003;50547;49.498;0.092;2024-01-30T08:05:12;5;5;
64229;PMS5003;50547;49.498;0.092;2024-01-30T08:07:41;3;3;
64229;PMS5003;50547;49.498;0.092;2024-01-30T08:10:11;3;3;
64229;PMS5003;50547;49.498;0.092;2024-01-30T08:12:40;4;4;
64229;PMS5003;50547;49.498;0.092;2024-01-30T08:15:11;3;3;
64229;PMS5003;50547;49.498;0.092;2024-01-30T08:17:40;4;4;
64229;PMS5003;50547;49.498;0.092;2024-01-30T08:20:10;3;3;
64229;PMS5003;50547;49.498;0.092;2024-01-30T08:22:39;3;3;
64229;PMS5003;50547;49.498;0.092;2024-01-30T08:25:09;4;4;
64229;PMS5003;50547;49.498;0.092;2024-01-30T08:27:38;3;3;
64229;PMS5003;50547;49.498;0.092;2024-01-30T08:30:07;4;4;
64229;PMS5003;50547;49.498;0.092;2024-01-30T08:32:37;4;4;
64229;PMS5003;50547;49.498;0.092;2024-01-30T08:35:06;3;3;
64229;PMS5003;50547;49.498;0.092;2024-01-30T08:37:35;3;3;
64229;PMS5003;50547;49.498;0.092;2024-01-30T08:40:05;3;3;
64229;PMS5003;50547;49.498;0.092;2024-01-30T08:42:34;3;3;
64229;PMS5003;50547;49.498;0.092;2024-01-30T08:45:04;3;3;
64229;PMS5003;50547;49.498;0.092;2024-01-30T08:47:33;3;3;
64229;PMS5003;50547;49.498;0.092;2024-01-30T08:50:03;3;3;
64229;PMS5003;50547;49.498;0.092;2024-01-30T08:52:32;4;4;
64229;PMS5003;50547;49.498;0.092;2024-01-30T08:55:02;3;3;
64229;PMS5003;50547;49.498;0.092;2024-01-30T08:57:31;6;6;
64229;PMS5003;50547;49.498;0.092;2024-01-30T09:00:00;6;6;
64229;PMS5003;50547;49.498;0.092;2024-01-30T09:02:29;6;6;
64229;PMS5003;50547;49.498;0.092;2024-01-30T09:04:58;4;4;
64229;PMS5003;50547;49.498;0.092;2024-01-30T09:07:27;5;5;
64229;PMS5003;50547;49.498;0.092;2024-01-30T09:09:56;4;4;
64229;PMS5003;50547;49.498;0.092;2024-01-30T09:12:25;7;7;
64229;PMS5003;50547;49.498;0.092;2024-01-30T09:14:54;5;5;
64229;PMS5003;50547;49.498;0.092;2024-01-30T09:17:23;7;7;
64229;PMS5003;50547;49.498;0.092;2024-01-30T09:19:52;5;5;
64229;PMS5003;50547;49.498;0.092;2024-01-30T09:22:21;6;6;
64229;PMS5003;50547;49.498;0.092;2024-01-30T09:24:51;5;5;
64229;PMS5003;50547;49.498;0.092;2024-01-30T09:27:20;5;5;
64229;PMS5003;50547;49.498;0.092;2024-01-30T09:29:49;4;4;
64229;PMS5003;50547;49.498;0.092;2024-01-30T09:32:18;4;4;
64229;PMS5003;50547;49.498;0.092;2024-01-30T09:34:47;4;4;
64229;PMS5003;50547;49.498;0.092;2024-01-30T09:37:16;3;3;
64229;PMS5003;50547;49.498;0.092;2024-01-30T09:39:45;4;4;
64229;PMS5003;50547;49.498;0.092;2024-01-30T09:42:16;3;3;
64229;PMS5003;50547;49.498;0.092;2024-01-30T09:44:50;4;4;
64229;PMS5003;50547;49.498;0.092;2024-01-30T09:47:20;4;4;
64229;PMS5003;50547;49.498;0.092;2024-01-30T09:49:49;4;4;
64229;PMS5003;50547;49.498;0.092;2024-01-30T09:52:20;3;3;
64229;PMS5003;50547;49.498;0.092;2024-01-30T09:54:49;5;5;
64229;PMS5003;50547;49.498;0.092;2024-01-30T09:57:20;4;4;
64229;PMS5003;50547;49.498;0.092;2024-01-30T09:59:49;5;5;
64229;PMS5003;50547;49.498;0.092;2024-01-30T10:02:18;5;5;
64229;PMS5003;50547;49.498;0.092;2024-01-30T10:04:48;5;5;
64229;PMS5003;50547;49.498;0.092;2024-01-30T10:07:17;4;4;
64229;PMS5003;50547;49.498;0.092;2024-01-30T10:09:46;5;5;
64229;PMS5003;50547;49.498;0.092;2024-01-30T10:12:15;6;6;
64229;PMS5003;50547;49.498;0.092;2024-01-30T10:14:44;5;5;
64229;PMS5003;50547;49.498;0.092;2024-01-30T10:17:14;4;4;
64229;PMS5003;50547;49.498;0.092;2024-01-30T10:19:43;5;5;
64229;PMS5003;50547;49.498;0.092;2024-01-30T10:22:12;4;4;
64229;PMS5003;50547;49.498;0.092;2024-01-30T10:24:41;6;6;
64229;PMS5003;50547;49.498;0.092;2024-01-30T10:27:10;4;4;
64229;PMS5003;50547;49.498;0.092;2024-01-30T10:29:39;5;5;
64229;PMS5003;50547;49.498;0.092;2024-01-30T10:32:08;5;5;
64229;PMS5003;50547;49.498;0.092;2024-01-30T10:34:37;5;5;
64229;PMS5003;50547;49.498;0.092;2024-01-30T10:37:07;4;4;
64229;PMS5003;50547;49.498;0.092;2024-01-30T10:39:38;5;5;
64229;PMS5003;50547;49.498;0.092;2024-01-30T10:42:10;5;5;
64229;PMS5003;50547;49.498;0.092;2024-01-30T10:44:44;6;6;
64229;PMS5003;50547;49.498;0.092;2024-01-30T10:47:26;4;4;
64229;PMS5003;50547;49.498;0.092;2024-01-30T10:49:56;5;5;
64229;PMS5003;50547;49.498;0.092;2024-01-30T10:52:25;5;5;
64229;PMS5003;50547;49.498;0.092;2024-01-30T10:54:55;5;5;
64229;PMS5003;50547;49.498;0.092;2024-01-30T10:57:25;4;4;
64229;PMS5003;50547;49.498;0.092;2024-01-30T10:59:56;5;5;
64229;PMS5003;50547;49.498;0.092;2024-01-30T11:02:27;6;6;
64229;PMS5003;50547;49.498;0.092;2024-01-30T11:04:57;7;7;
64229;PMS5003;50547;49.498;0.092;2024-01-30T11:07:28;4;4;
64229;PMS5003;50547;49.498;0.092;2024-01-30T11:09:59;4;4;
64229;PMS5003;50547;49.498;0.092;2024-01-30T11:12:30;3;3;
64229;PMS5003;50547;49.498;0.092;2024-01-30T11:15:02;4;4;
64229;PMS5003;50547;49.498;0.092;2024-01-30T11:17:50;4;4;
64229;PMS5003;50547;49.498;0.092;2024-01-30T11:20:21;5;5;
64229;PMS5003;50547;49.498;0.092;2024-01-30T11:22:51;4;4;
64229;PMS5003;50547;49.498;0.092;2024-01-30T11:25:22;6;6;
64229;PMS5003;50547;49.498;0.092;2024-01-30T11:27:52;5;5;
64229;PMS5003;50547;49.498;0.092;2024-01-30T11:30:23;5;5;
64229;PMS5003;50547;49.498;0.092;2024-01-30T11:33:00;8;8;
64229;PMS5003;50547;49.498;0.092;2024-01-30T11:35:32;5;5;
64229;PMS5003;50547;49.498;0.092;2024-01-30T11:38:02;6;6;
64229;PMS5003;50547;49.498;0.092;2024-01-30T11:40:33;5;5;
64229;PMS5003;50547;49.498;0.092;2024-01-30T11:43:04;4;4;
64229;PMS5003;50547;49.498;0.092;2024-01-30T11:45:35;8;8;
64229;PMS5003;50547;49.498;0.092;2024-01-30T11:48:05;6;6;
64229;PMS5003;50547;49.498;0.092;2024-01-30T11:50:35;8;8;
64229;PMS5003;50547;49.498;0.092;2024-01-30T11:53:07;7;7;
64229;PMS5003;50547;49.498;0.092;2024-01-30T11:55:36;8;8;
64229;PMS5003;50547;49.498;0.092;2024-01-30T11:58:05;7;7;
64229;PMS5003;50547;49.498;0.092;2024-01-30T12:00:34;8;8;
64229;PMS5003;50547;49.498;0.092;2024-01-30T12:03:03;8;8;
64229;PMS5003;50547;49.498;0.092;2024-01-30T12:05:33;7;7;
64229;PMS5003;50547;49.498;0.092;2024-01-30T12:08:02;8;8;
64229;PMS5003;50547;49.498;0.092;2024-01-30T12:10:32;7;7;
64229;PMS5003;50547;49.498;0.092;2024-01-30T12:13:01;8;8;
64229;PMS5003;50547;49.498;0.092;2024-01-30T12:15:31;8;8;
64229;PMS5003;50547;49.498;0.092;2024-01-30T12:18:04;6;6;
64229;PMS5003;50547;49.498;0.092;2024-01-30T12:20:33;6;6;
64229;PMS5003;50547;49.498;0.092;2024-01-30T12:23:02;6;6;
64229;PMS5003;50547;49.498;0.092;2024-01-30T12:25:32;8;8;
64229;PMS5003;50547;49.498;0.092;2024-01-30T12:28:01;7;7;
64229;PMS5003;50547;49.498;0.092;2024-01-30T12:30:31;6;6;
64229;PMS5003;50547;49.498;0.092;2024-01-30T12:33:00;7;7;
64229;PMS5003;50547;49.498;0.092;2024-01-30T12:35:29;7;7;
64229;PMS5003;50547;49.498;0.092;2024-01-30T12:37:59;6;6;
64229;PMS5003;50547;49.498;0.092;2024-01-30T12:40:25;5;5;
64229;PMS5003;50547;49.498;0.092;2024-01-30T12:42:54;4;4;
64229;PMS5003;50547;49.498;0.092;2024-01-30T12:45:23;6;6;
64229;PMS5003;50547;49.498;0.092;2024-01-30T12:47:53;7;7;
64229;PMS5003;50547;49.498;0.092;2024-01-30T12:50:23;7;7;
64229;PMS5003;50547;49.498;0.092;2024-01-30T12:52:52;6;6;
64229;PMS5003;50547;49.498;0.092;2024-01-30T12:55:21;7;7;
64229;PMS5003;50547;49.498;0.092;2024-01-30T12:57:50;6;6;
64229;PMS5003;50547;49.498;0.092;2024-01-30T13:00:19;5;5;
64229;PMS5003;50547;49.498;0.092;2024-01-30T13:02:48;5;5;
64229;PMS5003;50547;49.498;0.092;2024-01-30T13:05:18;5;5;
64229;PMS5003;50547;49.498;0.092;2024-01-30T13:07:47;4;4;
64229;PMS5003;50547;49.498;0.092;2024-01-30T13:10:16;4;4;
64229;PMS5003;50547;49.498;0.092;2024-01-30T13:12:45;4;4;
64229;PMS5003;50547;49.498;0.092;2024-01-30T13:15:14;4;4;
64229;PMS5003;50547;49.498;0.092;2024-01-30T13:17:43;4;4;
64229;PMS5003;50547;49.498;0.092;2024-01-30T13:20:13;5;5;
64229;PMS5003;50547;49.498;0.092;2024-01-30T13:22:43;5;5;
64229;PMS5003;50547;49.498;0.092;2024-01-30T13:25:12;4;4;
64229;PMS5003;50547;49.498;0.092;2024-01-30T13:27:41;4;4;
64229;PMS5003;50547;49.498;0.092;2024-01-30T13:30:10;5;5;
64229;PMS5003;50547;49.498;0.092;2024-01-30T13:32:40;4;4;
64229;PMS5003;50547;49.498;0.092;2024-01-30T13:35:09;4;4;
64229;PMS5003;50547;49.498;0.092;2024-01-30T13:37:38;4;4;
64229;PMS5003;50547;49.498;0.092;2024-01-30T13:40:08;4;4;
64229;PMS5003;50547;49.498;0.092;2024-01-30T13:42:37;4;4;
64229;PMS5003;50547;49.498;0.092;2024-01-30T13:45:07;4;4;
64229;PMS5003;50547;49.498;0.092;2024-01-30T13:47:36;4;4;
64229;PMS5003;50547;49.498;0.092;2024-01-30T13:50:05;5;5;
64229;PMS5003;50547;49.498;0.092;2024-01-30T13:52:34;6;6;
64229;PMS5003;50547;49.498;0.092;2024-01-30T13:55:03;4;4;
64229;PMS5003;50547;49.498;0.092;2024-01-30T13:57:32;4;4;
64229;PMS5003;50547;49.498;0.092;2024-01-30T14:00:02;4;4;
64229;PMS5003;50547;49.498;0.092;2024-01-30T14:02:31;5;5;
64229;PMS5003;50547;49.498;0.092;2024-01-30T14:05:00;5;5;
64229;PMS5003;50547;49.498;0.092;2024-01-30T14:07:29;6;6;
64229;PMS5003;50547;49.498;0.092;2024-01-30T14:09:58;10;10;
64229;PMS5003;50547;49.498;0.092;2024-01-30T14:12:27;14;14;
64229;PMS5003;50547;49.498;0.092;2024-01-30T14:14:56;10;10;
64229;PMS5003;50547;49.498;0.092;2024-01-30T14:17:25;4;4;
64229;PMS5003;50547;49.498;0.092;2024-01-30T14:19:55;7;7;
64229;PMS5003;50547;49.498;0.092;2024-01-30T14:22:24;7;7;
64229;PMS5003;50547;49.498;0.092;2024-01-30T14:24:53;6;6;
64229;PMS5003;50547;49.498;0.092;2024-01-30T14:27:22;7;7;
64229;PMS5003;50547;49.498;0.092;2024-01-30T14:29:51;6;6;
64229;PMS5003;50547;49.498;0.092;2024-01-30T14:32:20;8;8;
64229;PMS5003;50547;49.498;0.092;2024-01-30T14:34:49;8;8;
64229;PMS5003;50547;49.498;0.092;2024-01-30T14:37:18;7;7;
64229;PMS5003;50547;49.498;0.092;2024-01-30T14:39:48;5;5;
64229;PMS5003;50547;49.498;0.092;2024-01-30T14:42:18;5;5;
64229;PMS5003;50547;49.498;0.092;2024-01-30T14:44:47;6;6;
64229;PMS5003;50547;49.498;0.092;2024-01-30T14:47:16;7;7;
64229;PMS5003;50547;49.498;0.092;2024-01-30T14:49:42;7;7;
64229;PMS5003;50547;49.498;0.092;2024-01-30T14:52:11;7;7;
64229;PMS5003;50547;49.498;0.092;2024-01-30T14:54:40;8;8;
64229;PMS5003;50547;49.498;0.092;2024-01-30T14:57:06;7;7;
64229;PMS5003;50547;49.498;0.092;2024-01-30T14:59:35;7;7;
64229;PMS5003;50547;49.498;0.092;2024-01-30T15:02:05;8;8;
64229;PMS5003;50547;49.498;0.092;2024-01-30T15:04:34;7;7;
64229;PMS5003;50547;49.498;0.092;2024-01-30T15:07:03;8;8;
64229;PMS5003;50547;49.498;0.092;2024-01-30T15:09:32;7;7;
64229;PMS5003;50547;49.498;0.092;2024-01-30T15:12:02;6;6;
64229;PMS5003;50547;49.498;0.092;2024-01-30T15:14:31;5;5;
64229;PMS5003;50547;49.498;0.092;2024-01-30T15:17:00;6;6;
64229;PMS5003;50547;49.498;0.092;2024-01-30T15:19:29;6;6;
64229;PMS5003;50547;49.498;0.092;2024-01-30T15:21:58;5;5;
64229;PMS5003;50547;49.498;0.092;2024-01-30T15:24:27;6;6;
64229;PMS5003;50547;49.498;0.092;2024-01-30T15:26:56;4;4;
64229;PMS5003;50547;49.498;0.092;2024-01-30T15:29:25;7;7;
64229;PMS5003;50547;49.498;0.092;2024-01-30T15:31:55;6;6;
64229;PMS5003;50547;49.498;0.092;2024-01-30T15:34:24;6;6;
64229;PMS5003;50547;49.498;0.092;2024-01-30T15:36:53;6;6;
64229;PMS5003;50547;49.498;0.092;2024-01-30T15:39:22;5;5;
64229;PMS5003;50547;49.498;0.092;2024-01-30T15:41:51;7;7;
64229;PMS5003;50547;49.498;0.092;2024-01-30T15:44:20;4;4;
64229;PMS5003;50547;49.498;0.092;2024-01-30T15:46:48;4;4;
64229;PMS5003;50547;49.498;0.092;2024-01-30T15:49:17;4;4;
64229;PMS5003;50547;49.498;0.092;2024-01-30T15:51:46;5;5;
64229;PMS5003;50547;49.498;0.092;2024-01-30T15:54:15;6;6;
64229;PMS5003;50547;49.498;0.092;2024-01-30T15:56:44;4;4;
64229;PMS5003;50547;49.498;0.092;2024-01-30T15:59:13;4;4;
64229;PMS5003;50547;49.498;0.092;2024-01-30T16:01:43;4;4;
64229;PMS5003;50547;49.498;0.092;2024-01-30T16:04:12;4;4;
64229;PMS5003;50547;49.498;0.092;2024-01-30T16:06:41;5;5;
64229;PMS5003;50547;49.498;0.092;2024-01-30T16:09:10;4;4;
64229;PMS5003;50547;49.498;0.092;2024-01-30T16:11:39;4;4;
64229;PMS5003;50547;49.498;0.092;2024-01-30T16:14:07;4;4;
64229;PMS5003;50547;49.498;0.092;2024-01-30T16:16:41;4;4;
64229;PMS5003;50547;49.498;0.092;2024-01-30T16:19:10;5;5;
64229;PMS5003;50547;49.498;0.092;2024-01-30T16:21:54;4;4;
64229;PMS5003;50547;49.498;0.092;2024-01-30T16:24:24;6;6;
64229;PMS5003;50547;49.498;0.092;2024-01-30T16:26:53;4;4;
64229;PMS5003;50547;49.498;0.092;2024-01-30T16:29:22;4;4;
64229;PMS5003;50547;49.498;0.092;2024-01-30T16:31:51;4;4;
64229;PMS5003;50547;49.498;0.092;2024-01-30T16:34:20;5;5;
64229;PMS5003;50547;49.498;0.092;2024-01-30T16:36:49;4;4;
64229;PMS5003;50547;49.498;0.092;2024-01-30T16:39:18;4;4;
64229;PMS5003;50547;49.498;0.092;2024-01-30T16:41:47;4;4;
64229;PMS5003;50547;49.498;0.092;2024-01-30T16:44:17;4;4;
64229;PMS5003;50547;49.498;0.092;2024-01-30T16:46:46;5;5;
64229;PMS5003;50547;49.498;0.092;2024-01-30T16:49:15;4;4;
64229;PMS5003;50547;49.498;0.092;2024-01-30T16:51:44;6;6;
64229;PMS5003;50547;49.498;0.092;2024-01-30T16:54:13;5;5;
64229;PMS5003;50547;49.498;0.092;2024-01-30T16:56:42;5;5;